CZEM

Eastmain River Airport

ICAO Code CZEM
IATA Code ZEM
Name Eastmain River Airport
Location Eastmain River, Quebec, CA
Elevation 24 Feet / 7.3 Meters
Latitude 52.22638889
Longitude -78.52250000
METAR CZEM 072000Z 29008KT 15SM FEW040 08/M03 A2993 RMK SC1 LAST STFD OBS/NEXT 091400 UTC SLP138
Extra information Display Charts and CFS
Display NOTAMS
Runway Length Width Surface Elevation
02 3512 ft 100 ft GRAVEL 21 ft
20 3512 ft 100 ft GRAVEL 24 ft